Time;durP1;ratioP1;P1;durP2;ratioP2;P2;SDS_P1;SDS_P2;PMS_P1;PMS_P2;Temp;Humidity;BMP_temperature;BMP_pressure;BME280_temperature;BME280_humidity;BME280_pressure;Samples;Min_cycle;Max_cycle;Signal;HPM_P1;HPM_P2
2021/08/04 00:00:54;;;;;;;5.00;3.17;;;17.50;99.90;;;;;;4824405;29;20251;-68
2021/08/04 00:03:20;;;;;;;3.53;3.23;;;17.50;99.90;;;;;;4823815;29;20306;-68
2021/08/04 00:05:45;;;;;;;2.93;2.70;;;17.60;99.90;;;;;;4808567;29;20349;-68
2021/08/04 00:08:11;;;;;;;3.30;3.00;;;17.50;99.90;;;;;;4808685;29;20234;-67
2021/08/04 00:10:37;;;;;;;2.93;2.70;;;17.50;99.90;;;;;;4807555;29;20239;-68
2021/08/04 00:13:02;;;;;;;3.40;3.10;;;17.60;99.90;;;;;;4808016;29;20239;-67
2021/08/04 00:15:28;;;;;;;7.80;3.10;;;17.50;99.90;;;;;;4809008;29;20234;-68
2021/08/04 00:17:54;;;;;;;3.33;3.03;;;17.50;99.90;;;;;;4824256;29;20246;-68
2021/08/04 00:20:19;;;;;;;4.03;3.27;;;17.50;99.90;;;;;;4807846;29;20227;-67
2021/08/04 00:22:45;;;;;;;6.80;3.50;;;17.50;99.90;;;;;;4823744;29;20235;-68
2021/08/04 00:25:11;;;;;;;3.70;3.40;;;17.50;99.90;;;;;;4807799;29;20252;-67
2021/08/04 00:27:37;;;;;;;3.60;3.30;;;17.40;99.90;;;;;;4823686;29;20712;-68
2021/08/04 00:30:04;;;;;;;4.40;4.00;;;17.40;99.90;;;;;;4823432;29;20468;-68
2021/08/04 00:32:30;;;;;;;3.80;3.37;;;17.40;99.90;;;;;;4822384;29;20239;-67
2021/08/04 00:34:56;;;;;;;3.77;3.43;;;17.30;99.90;;;;;;4823741;29;20465;-68
2021/08/04 00:37:22;;;;;;;4.03;3.00;;;17.30;99.90;;;;;;4826453;29;20720;-67
2021/08/04 00:39:47;;;;;;;4.40;4.00;;;17.40;99.90;;;;;;4828502;29;20619;-65
2021/08/04 00:42:18;;;;;;;5.17;4.17;;;17.40;99.90;;;;;;4807123;29;20251;-67
2021/08/04 00:44:44;;;;;;;4.73;3.50;;;17.40;99.90;;;;;;4823722;29;20232;-68
2021/08/04 00:47:09;;;;;;;4.13;3.73;;;17.30;99.90;;;;;;4823486;29;20532;-68
2021/08/04 00:49:38;;;;;;;4.97;4.17;;;17.40;99.90;;;;;;4822994;29;21064;-68
2021/08/04 00:52:04;;;;;;;4.03;3.40;;;17.30;99.90;;;;;;4822635;29;20219;-66
2021/08/04 00:54:30;;;;;;;3.60;3.30;;;17.40;99.90;;;;;;4823773;29;20472;-66
2021/08/04 00:56:56;;;;;;;4.03;3.73;;;17.40;99.90;;;;;;4822111;29;21013;-67
2021/08/04 00:59:21;;;;;;;4.10;3.80;;;17.30;99.90;;;;;;4822877;29;20245;-67
2021/08/04 01:02:19;;;;;;;4.40;3.53;;;17.30;99.90;;;;;;4808077;29;20603;-66
2021/08/04 01:04:55;;;;;;;5.83;3.80;;;17.30;99.90;;;;;;4795929;29;20227;-67
2021/08/04 01:07:35;;;;;;;3.73;3.43;;;17.20;99.90;;;;;;4822353;29;20451;-67
2021/08/04 01:10:15;;;;;;;3.50;3.20;;;17.20;99.90;;;;;;4822781;29;20463;-68
2021/08/04 01:12:45;;;;;;;3.50;3.20;;;17.20;99.90;;;;;;4822319;29;20539;-68
2021/08/04 01:15:13;;;;;;;3.20;2.90;;;17.20;99.90;;;;;;4822878;29;20472;-68
2021/08/04 01:17:44;;;;;;;3.43;2.90;;;17.20;99.90;;;;;;4823543;29;20525;-69
2021/08/04 01:20:13;;;;;;;3.47;2.67;;;17.20;99.90;;;;;;4822480;29;20486;-67
2021/08/04 01:23:01;;;;;;;3.10;2.80;;;17.30;99.90;;;;;;4822568;29;20468;-69
2021/08/04 01:25:55;;;;;;;3.40;3.10;;;17.30;99.90;;;;;;4804834;29;20453;-68
2021/08/04 01:28:33;;;;;;;2.97;2.73;;;17.30;99.90;;;;;;4825998;29;20452;-68
2021/08/04 01:31:04;;;;;;;3.17;2.87;;;17.30;99.90;;;;;;4836960;29;21009;-68
2021/08/04 01:33:31;;;;;;;2.83;2.60;;;17.30;99.90;;;;;;4820539;29;20472;-67
2021/08/04 01:35:58;;;;;;;3.20;3.00;;;17.30;99.90;;;;;;4827423;29;20549;-67
2021/08/04 01:38:24;;;;;;;3.40;3.10;;;17.30;99.90;;;;;;4812359;29;20469;-68
2021/08/04 01:40:51;;;;;;;3.00;2.80;;;17.30;99.90;;;;;;4821814;29;20468;-68
2021/08/04 01:43:22;;;;;;;3.53;3.13;;;17.30;99.90;;;;;;4822012;29;20479;-68
2021/08/04 01:45:49;;;;;;;3.30;2.67;;;17.30;99.90;;;;;;4823149;29;20469;-68
2021/08/04 01:48:15;;;;;;;4.47;3.40;;;17.30;99.90;;;;;;4821471;29;20544;-68
2021/08/04 01:50:42;;;;;;;3.93;3.53;;;17.30;99.90;;;;;;4822546;29;20492;-68
2021/08/04 01:53:08;;;;;;;4.67;2.90;;;17.30;99.90;;;;;;4808606;29;20480;-68
2021/08/04 01:55:34;;;;;;;3.53;3.23;;;17.30;99.90;;;;;;4826194;29;20472;-68
2021/08/04 01:58:01;;;;;;;3.30;3.00;;;17.30;99.90;;;;;;4810554;29;20264;-68
2021/08/04 02:00:26;;;;;;;3.10;2.87;;;17.30;99.90;;;;;;4825801;29;20475;-68
2021/08/04 02:02:52;;;;;;;3.70;3.40;;;17.30;99.90;;;;;;4841654;29;20468;-69
2021/08/04 02:05:18;;;;;;;4.73;3.73;;;17.30;99.90;;;;;;4825720;29;20283;-68
2021/08/04 02:08:08;;;;;;;4.50;3.50;;;17.20;99.90;;;;;;4810907;29;20334;-68
2021/08/04 02:11:00;;;;;;;4.17;3.33;;;17.20;99.90;;;;;;4810466;29;20232;-69
2021/08/04 02:13:35;;;;;;;5.57;3.37;;;17.20;99.90;;;;;;4807617;29;20472;-69
2021/08/04 02:16:24;;;;;;;3.00;2.80;;;17.10;99.90;;;;;;4810369;29;20459;-68
2021/08/04 02:19:03;;;;;;;3.77;3.40;;;17.10;99.90;;;;;;4825858;29;20460;-68
2021/08/04 02:21:31;;;;;;;4.47;4.07;;;17.00;99.90;;;;;;4825528;29;20469;-68
2021/08/04 02:23:59;;;;;;;4.20;3.80;;;17.00;99.90;;;;;;4809886;29;20535;-68
2021/08/04 02:26:27;;;;;;;3.77;3.47;;;17.00;99.90;;;;;;4825845;29;20459;-70
2021/08/04 02:28:56;;;;;;;4.13;3.50;;;17.00;99.90;;;;;;4825735;29;20516;-67
2021/08/04 02:31:22;;;;;;;3.73;3.43;;;17.00;99.90;;;;;;4824746;29;20972;-65
2021/08/04 02:33:49;;;;;;;4.50;3.70;;;17.00;99.90;;;;;;4824998;29;20504;-69
2021/08/04 02:36:15;;;;;;;4.03;3.63;;;17.00;99.90;;;;;;4813384;29;20268;-68
2021/08/04 02:38:40;;;;;;;3.73;3.33;;;17.10;99.90;;;;;;4825100;29;20500;-68
2021/08/04 02:41:06;;;;;;;3.83;3.20;;;17.00;99.90;;;;;;4824506;29;21000;-69
2021/08/04 02:43:32;;;;;;;3.53;3.23;;;17.10;99.90;;;;;;4824346;29;20287;-68
2021/08/04 02:45:59;;;;;;;5.87;3.37;;;17.10;99.90;;;;;;4825797;29;20648;-68
2021/08/04 02:48:26;;;;;;;3.93;3.37;;;17.10;99.90;;;;;;4824454;29;20491;-69
2021/08/04 02:50:58;;;;;;;3.43;2.93;;;17.10;99.90;;;;;;4809478;29;20865;-67
2021/08/04 02:53:24;;;;;;;3.90;3.13;;;17.10;99.90;;;;;;4824902;29;20468;-67
2021/08/04 02:55:51;;;;;;;3.23;3.03;;;17.10;99.90;;;;;;4825385;29;21036;-68
2021/08/04 02:58:17;;;;;;;2.93;2.73;;;17.10;99.90;;;;;;4809055;29;20234;-67
2021/08/04 03:00:43;;;;;;;3.30;3.00;;;17.10;99.90;;;;;;4824733;29;20488;-68
2021/08/04 03:03:09;;;;;;;4.00;3.50;;;17.10;99.90;;;;;;4824811;29;20497;-67
2021/08/04 03:05:35;;;;;;;4.27;3.37;;;17.10;99.90;;;;;;4824103;29;20229;-67
2021/08/04 03:08:01;;;;;;;4.03;3.27;;;17.10;99.90;;;;;;4824697;29;20227;-66
2021/08/04 03:10:27;;;;;;;3.40;3.10;;;17.10;99.90;;;;;;4806092;29;20708;-69
2021/08/04 03:12:53;;;;;;;3.63;3.20;;;17.10;99.90;;;;;;4824750;29;20231;-68
2021/08/04 03:15:19;;;;;;;3.53;3.23;;;17.10;99.90;;;;;;4824116;29;20504;-67
2021/08/04 03:17:44;;;;;;;4.60;3.00;;;17.10;99.90;;;;;;4824887;29;20284;-67
2021/08/04 03:20:11;;;;;;;4.80;3.70;;;17.10;99.90;;;;;;4824519;29;20238;-68
2021/08/04 03:22:46;;;;;;;4.80;4.30;;;17.10;99.90;;;;;;4821518;29;20239;-68
2021/08/04 03:25:14;;;;;;;8.87;3.83;;;17.10;99.90;;;;;;4824306;29;20470;-67
2021/08/04 03:27:40;;;;;;;3.87;3.50;;;17.10;99.90;;;;;;4825115;29;20464;-67
2021/08/04 03:30:06;;;;;;;3.87;3.57;;;17.10;99.90;;;;;;4824272;29;20464;-67
2021/08/04 03:32:32;;;;;;;3.43;3.13;;;17.10;99.90;;;;;;4824141;29;20536;-67
2021/08/04 03:34:58;;;;;;;3.73;3.37;;;17.10;99.90;;;;;;4824814;29;20503;-66
2021/08/04 03:37:23;;;;;;;3.57;3.27;;;17.00;99.90;;;;;;4827157;29;20295;-68
2021/08/04 03:39:49;;;;;;;3.77;3.47;;;17.00;99.90;;;;;;4824398;29;20219;-67
2021/08/04 03:42:16;;;;;;;2.80;2.60;;;17.00;99.90;;;;;;4838805;29;20279;-68
2021/08/04 03:44:42;;;;;;;4.20;3.80;;;17.00;99.90;;;;;;4821557;29;20234;-66
2021/08/04 03:47:08;;;;;;;4.17;2.73;;;17.00;99.90;;;;;;4824078;29;20464;-68
2021/08/04 03:49:34;;;;;;;3.73;3.43;;;17.00;99.90;;;;;;4824250;29;20467;-67
2021/08/04 03:52:00;;;;;;;7.33;3.90;;;17.00;99.90;;;;;;4823234;29;20581;-67
2021/08/04 03:54:26;;;;;;;7.17;4.17;;;17.00;99.90;;;;;;4809082;29;20452;-67
2021/08/04 03:56:51;;;;;;;4.27;3.87;;;17.00;99.90;;;;;;4809239;29;20681;-67
2021/08/04 03:59:17;;;;;;;6.33;4.50;;;17.00;99.90;;;;;;4823582;29;20278;-67
2021/08/04 04:01:42;;;;;;;9.20;4.73;;;17.00;99.90;;;;;;4823600;29;20227;-67
2021/08/04 04:04:08;;;;;;;5.10;4.40;;;17.00;99.90;;;;;;4824131;29;20238;-66
2021/08/04 04:06:34;;;;;;;5.40;4.37;;;17.00;99.90;;;;;;4809964;29;20707;-67
2021/08/04 04:08:59;;;;;;;5.00;4.60;;;17.00;99.90;;;;;;4840235;29;20238;-71
2021/08/04 04:11:25;;;;;;;4.80;4.40;;;16.90;99.90;;;;;;4823046;29;20314;-67
2021/08/04 04:13:52;;;;;;;9.40;4.83;;;17.00;99.90;;;;;;4810152;29;20231;-68
2021/08/04 04:16:17;;;;;;;5.57;4.43;;;16.90;99.90;;;;;;4815569;29;20283;-67
2021/08/04 04:18:43;;;;;;;9.60;4.70;;;16.90;99.90;;;;;;4840136;29;20465;-66
2021/08/04 04:21:09;;;;;;;6.80;4.30;;;16.90;99.90;;;;;;4822998;29;20688;-69
2021/08/04 04:23:34;;;;;;;5.27;4.70;;;16.90;99.90;;;;;;4824208;29;20262;-67
2021/08/04 04:26:02;;;;;;;5.40;4.57;;;16.90;99.90;;;;;;4839884;29;20227;-67
2021/08/04 04:28:28;;;;;;;5.00;4.50;;;16.90;99.90;;;;;;4823227;29;20249;-69
2021/08/04 04:30:54;;;;;;;5.57;4.40;;;16.90;99.90;;;;;;4808366;29;20808;-68
2021/08/04 04:33:20;;;;;;;5.50;4.27;;;16.90;99.90;;;;;;4823270;29;20501;-68
2021/08/04 04:35:45;;;;;;;8.67;4.70;;;16.90;99.90;;;;;;4808246;29;20248;-69
2021/08/04 04:38:11;;;;;;;7.53;4.80;;;16.90;99.90;;;;;;4823117;29;20759;-68
2021/08/04 04:40:37;;;;;;;4.53;4.13;;;16.90;99.90;;;;;;4806930;29;20281;-71
2021/08/04 04:43:02;;;;;;;6.80;4.27;;;16.90;99.90;;;;;;4807735;29;20231;-68
2021/08/04 04:45:28;;;;;;;4.73;4.33;;;16.90;99.90;;;;;;4808161;29;20358;-70
2021/08/04 04:47:54;;;;;;;6.13;4.27;;;16.90;99.90;;;;;;4808193;29;20242;-69
2021/08/04 04:50:19;;;;;;;5.70;4.80;;;16.90;99.90;;;;;;4822753;29;20250;-68
2021/08/04 04:52:45;;;;;;;4.03;3.57;;;16.90;99.90;;;;;;4807886;29;20235;-68
2021/08/04 04:55:12;;;;;;;3.80;3.50;;;17.00;99.90;;;;;;4807538;29;20231;-68
2021/08/04 04:57:37;;;;;;;5.80;3.83;;;17.00;99.90;;;;;;4823392;29;20257;-68
2021/08/04 05:00:06;;;;;;;4.03;3.47;;;17.00;99.90;;;;;;4821910;29;20858;-68
2021/08/04 05:02:31;;;;;;;4.20;3.80;;;17.00;99.90;;;;;;4806918;29;20235;-68
2021/08/04 05:04:58;;;;;;;6.27;4.03;;;17.00;99.90;;;;;;4808124;29;20543;-68
2021/08/04 05:07:25;;;;;;;3.50;3.20;;;17.00;99.90;;;;;;4823080;29;20711;-68
2021/08/04 05:09:50;;;;;;;3.43;3.13;;;17.00;99.90;;;;;;4822339;29;20503;-66
2021/08/04 05:12:16;;;;;;;5.63;3.60;;;17.00;99.90;;;;;;4838684;29;20520;-69
2021/08/04 05:14:42;;;;;;;3.47;3.17;;;17.00;99.90;;;;;;4822099;29;20227;-68
2021/08/04 05:17:12;;;;;;;3.70;3.20;;;17.00;99.90;;;;;;4807174;29;20242;-67
2021/08/04 05:19:38;;;;;;;4.93;3.90;;;17.00;99.90;;;;;;4822090;29;20307;-69
2021/08/04 05:22:03;;;;;;;5.50;4.07;;;17.00;99.90;;;;;;4807166;29;20476;-68
2021/08/04 05:24:29;;;;;;;3.97;3.00;;;17.00;99.90;;;;;;4822504;29;20705;-68
2021/08/04 05:26:55;;;;;;;6.10;3.80;;;17.00;99.90;;;;;;4807324;29;20318;-68
2021/08/04 05:29:20;;;;;;;5.50;3.63;;;17.00;99.90;;;;;;4832437;29;20219;-68
2021/08/04 05:31:46;;;;;;;5.17;4.07;;;17.00;99.90;;;;;;4840965;29;20763;-69
2021/08/04 05:34:11;;;;;;;4.93;4.33;;;17.00;99.90;;;;;;4825546;29;20242;-68
2021/08/04 05:36:37;;;;;;;4.50;4.10;;;17.10;99.90;;;;;;4812824;29;20279;-68
2021/08/04 05:39:03;;;;;;;4.43;3.90;;;17.10;99.90;;;;;;4821404;29;20223;-68
2021/08/04 05:41:28;;;;;;;4.70;4.17;;;17.10;99.90;;;;;;4807407;29;20656;-69
2021/08/04 05:43:54;;;;;;;6.30;4.27;;;17.10;99.90;;;;;;4807114;29;20228;-68
2021/08/04 05:46:20;;;;;;;3.73;3.43;;;17.10;99.90;;;;;;4822785;29;20759;-68
2021/08/04 05:48:45;;;;;;;3.87;3.57;;;17.10;99.90;;;;;;4822035;29;20223;-69
2021/08/04 05:51:11;;;;;;;5.67;3.73;;;17.10;99.90;;;;;;4821997;29;20238;-68
2021/08/04 05:53:36;;;;;;;4.30;3.87;;;17.10;99.90;;;;;;4822160;29;20235;-69
2021/08/04 05:56:02;;;;;;;3.70;3.40;;;17.10;99.90;;;;;;4807468;29;20237;-68
2021/08/04 05:58:28;;;;;;;3.77;3.47;;;17.10;99.90;;;;;;4822185;29;20298;-69
2021/08/04 06:00:53;;;;;;;4.20;3.63;;;17.10;99.90;;;;;;4839162;29;20306;-69
2021/08/04 06:03:19;;;;;;;4.67;3.10;;;17.10;99.90;;;;;;4822428;29;20239;-68
2021/08/04 06:05:45;;;;;;;4.00;3.60;;;17.10;99.90;;;;;;4806907;29;20227;-69
2021/08/04 06:08:11;;;;;;;4.20;3.80;;;17.10;99.90;;;;;;4838202;29;20223;-69
2021/08/04 06:10:37;;;;;;;5.00;3.37;;;17.10;99.90;;;;;;4804572;29;20224;-69
2021/08/04 06:13:03;;;;;;;6.50;4.00;;;17.10;99.90;;;;;;4817069;29;20228;-70
2021/08/04 06:15:29;;;;;;;4.93;4.33;;;17.10;99.90;;;;;;4807789;29;20467;-69
2021/08/04 06:17:54;;;;;;;4.70;4.10;;;17.10;99.90;;;;;;4821888;29;20480;-69
2021/08/04 06:20:20;;;;;;;6.70;4.73;;;17.20;99.90;;;;;;4804517;29;20452;-71
2021/08/04 06:22:46;;;;;;;6.30;4.70;;;17.20;99.90;;;;;;4821633;29;20777;-69
2021/08/04 06:25:12;;;;;;;10.67;4.33;;;17.20;99.90;;;;;;4823455;29;20722;-69
2021/08/04 06:27:38;;;;;;;4.90;4.40;;;17.20;99.90;;;;;;4820808;29;20227;-68
2021/08/04 06:30:05;;;;;;;5.13;4.17;;;17.20;99.90;;;;;;4805316;29;20969;-69
2021/08/04 06:32:31;;;;;;;4.07;3.70;;;17.30;99.90;;;;;;4805593;29;20486;-70
2021/08/04 06:34:56;;;;;;;5.07;4.40;;;17.30;99.90;;;;;;4804601;29;20499;-69
2021/08/04 06:37:22;;;;;;;3.83;3.50;;;17.30;99.90;;;;;;4822290;29;20501;-69
2021/08/04 06:39:48;;;;;;;5.57;4.80;;;17.30;99.90;;;;;;4822703;29;20332;-68
2021/08/04 06:42:13;;;;;;;4.27;3.87;;;17.30;99.90;;;;;;4825443;29;20620;-70
2021/08/04 06:44:40;;;;;;;4.90;4.50;;;17.30;99.90;;;;;;4831032;29;20231;-71
2021/08/04 06:47:06;;;;;;;7.63;5.50;;;17.40;99.90;;;;;;4830859;29;20215;-69
2021/08/04 06:49:32;;;;;;;5.63;5.00;;;17.40;99.90;;;;;;4813597;29;20466;-69
2021/08/04 06:51:57;;;;;;;7.90;4.40;;;17.40;99.90;;;;;;4825457;29;20258;-71
2021/08/04 06:54:24;;;;;;;6.80;5.60;;;17.50;99.90;;;;;;4843019;29;20235;-68
2021/08/04 06:56:51;;;;;;;6.00;5.13;;;17.50;99.90;;;;;;4828924;29;20318;-69
2021/08/04 06:59:16;;;;;;;5.80;5.07;;;17.50;99.90;;;;;;4828927;29;20877;-69
2021/08/04 07:01:44;;;;;;;6.27;5.33;;;17.50;99.90;;;;;;4830183;29;20456;-69
2021/08/04 07:04:14;;;;;;;5.87;5.13;;;17.50;99.90;;;;;;4847243;29;20226;-69
2021/08/04 07:07:01;;;;;;;8.10;5.30;;;17.50;99.90;;;;;;4811915;29;20466;-71
2021/08/04 07:09:27;;;;;;;7.57;6.40;;;17.50;99.90;;;;;;4826849;29;20456;-69
2021/08/04 07:11:53;;;;;;;6.80;6.10;;;17.50;99.90;;;;;;4828989;29;20990;-69
2021/08/04 07:14:19;;;;;;;5.50;4.87;;;17.50;99.90;;;;;;4828102;29;20310;-69
2021/08/04 07:16:45;;;;;;;5.50;4.80;;;17.60;99.90;;;;;;4824202;29;20227;-68
2021/08/04 07:19:11;;;;;;;9.37;5.73;;;17.60;99.90;;;;;;4838052;29;20634;-69
2021/08/04 07:21:38;;;;;;;10.23;5.43;;;17.60;99.90;;;;;;4805922;29;20460;-68
2021/08/04 07:24:05;;;;;;;4.30;3.67;;;17.60;99.90;;;;;;4820106;29;20219;-69
2021/08/04 07:26:31;;;;;;;5.57;4.30;;;17.60;99.90;;;;;;4806315;29;20555;-69
2021/08/04 07:28:56;;;;;;;6.70;4.87;;;17.60;99.90;;;;;;4813496;29;20542;-69
2021/08/04 07:31:24;;;;;;;7.00;4.87;;;17.70;99.90;;;;;;4820683;29;20224;-68
2021/08/04 07:33:50;;;;;;;5.30;4.80;;;17.70;99.90;;;;;;4822824;29;20239;-69
2021/08/04 07:36:16;;;;;;;6.10;5.50;;;17.70;99.90;;;;;;4829515;29;20499;-69
2021/08/04 07:38:43;;;;;;;5.97;4.60;;;17.80;99.90;;;;;;4818133;29;20491;-68
2021/08/04 07:41:08;;;;;;;6.50;5.13;;;17.90;99.90;;;;;;4827648;29;20484;-68
2021/08/04 07:43:34;;;;;;;5.77;4.93;;;17.90;99.90;;;;;;4832207;29;20350;-70
2021/08/04 07:46:00;;;;;;;5.57;5.07;;;17.90;99.90;;;;;;4829414;29;20250;-70
2021/08/04 07:48:28;;;;;;;5.80;5.20;;;18.00;99.90;;;;;;4846770;29;20227;-70
2021/08/04 07:50:54;;;;;;;5.77;4.70;;;18.00;99.90;;;;;;4816663;29;20314;-70
2021/08/04 07:53:20;;;;;;;5.93;5.30;;;18.00;99.90;;;;;;4814988;29;20464;-71
2021/08/04 07:55:45;;;;;;;6.23;4.50;;;18.00;99.90;;;;;;4818079;29;20471;-68
2021/08/04 07:58:11;;;;;;;5.07;4.57;;;18.00;99.90;;;;;;4815286;29;20299;-68
2021/08/04 08:00:36;;;;;;;8.33;4.83;;;18.00;99.90;;;;;;4831943;29;20285;-69
2021/08/04 08:03:02;;;;;;;10.13;5.40;;;18.00;99.90;;;;;;4828858;29;20230;-70
2021/08/04 08:05:28;;;;;;;6.87;4.63;;;18.00;99.90;;;;;;4827930;29;20258;-70
2021/08/04 08:07:54;;;;;;;6.00;5.40;;;18.10;99.90;;;;;;4808486;29;20248;-69
2021/08/04 08:10:21;;;;;;;4.87;4.47;;;18.10;99.90;;;;;;4831816;29;21272;-69
2021/08/04 08:12:48;;;;;;;5.60;5.10;;;18.00;99.90;;;;;;4828167;29;20238;-69
2021/08/04 08:15:14;;;;;;;5.20;4.70;;;18.10;99.90;;;;;;4821636;29;20468;-69
2021/08/04 08:17:40;;;;;;;5.23;4.73;;;18.10;99.90;;;;;;4816300;29;20476;-69
2021/08/04 08:20:06;;;;;;;5.17;4.67;;;18.00;99.90;;;;;;4826416;29;20479;-69
2021/08/04 08:22:33;;;;;;;5.00;4.60;;;18.10;99.90;;;;;;4835757;29;20667;-69
2021/08/04 08:24:59;;;;;;;5.60;4.47;;;18.10;99.90;;;;;;4832479;29;20478;-68
2021/08/04 08:27:24;;;;;;;5.00;4.40;;;18.10;99.90;;;;;;4826756;29;20589;-70
2021/08/04 08:29:50;;;;;;;5.50;4.30;;;18.20;99.90;;;;;;4817009;29;20921;-69
2021/08/04 08:32:16;;;;;;;5.00;4.50;;;18.20;99.90;;;;;;4807501;29;20235;-69
2021/08/04 08:34:42;;;;;;;4.67;4.27;;;18.20;99.90;;;;;;4808493;29;20231;-69
2021/08/04 08:37:08;;;;;;;4.33;3.93;;;18.30;99.90;;;;;;4839436;29;20242;-69
2021/08/04 08:39:34;;;;;;;4.17;3.77;;;18.30;99.90;;;;;;4812237;29;20634;-69
2021/08/04 08:42:00;;;;;;;4.50;4.10;;;18.20;99.90;;;;;;4808477;29;20292;-69
2021/08/04 08:44:26;;;;;;;5.40;4.50;;;18.30;99.90;;;;;;4823263;29;20484;-70
2021/08/04 08:46:52;;;;;;;7.63;5.50;;;18.30;99.90;;;;;;4808153;29;20492;-68
2021/08/04 08:49:28;;;;;;;5.40;4.90;;;18.30;99.90;;;;;;4807648;29;20650;-69
2021/08/04 08:51:55;;;;;;;4.60;4.00;;;18.40;99.90;;;;;;4805356;29;20507;-69
2021/08/04 08:54:22;;;;;;;4.87;4.47;;;18.40;99.90;;;;;;4836283;29;21086;-68
2021/08/04 08:56:48;;;;;;;4.40;4.00;;;18.40;99.90;;;;;;4820278;29;21020;-69
2021/08/04 08:59:17;;;;;;;4.60;4.20;;;18.50;99.90;;;;;;4804279;29;20496;-69
2021/08/04 09:01:43;;;;;;;4.80;4.40;;;18.50;99.90;;;;;;4819504;29;20239;-71
2021/08/04 09:04:10;;;;;;;4.07;3.77;;;18.60;99.90;;;;;;4803776;29;20535;-70
2021/08/04 09:06:54;;;;;;;6.90;4.67;;;18.60;99.90;;;;;;4821246;29;20520;-70
2021/08/04 09:09:23;;;;;;;5.60;4.30;;;18.70;99.90;;;;;;4821716;29;20444;-69
2021/08/04 09:11:51;;;;;;;5.30;4.80;;;18.70;99.90;;;;;;4822466;29;21057;-69
2021/08/04 09:14:24;;;;;;;4.53;4.13;;;18.70;99.90;;;;;;4807146;29;20460;-69
2021/08/04 09:17:16;;;;;;;6.23;4.97;;;18.70;99.90;;;;;;4822821;29;20556;-69
2021/08/04 09:19:46;;;;;;;5.83;4.53;;;18.80;99.90;;;;;;4807538;29;20488;-69
2021/08/04 09:22:24;;;;;;;5.47;4.40;;;18.90;99.90;;;;;;4806606;29;21019;-68
2021/08/04 09:25:08;;;;;;;4.93;4.53;;;18.90;99.90;;;;;;4833567;29;20481;-69
2021/08/04 09:27:46;;;;;;;4.90;4.40;;;19.00;99.90;;;;;;4820120;29;20462;-70
2021/08/04 09:30:16;;;;;;;5.40;4.77;;;19.00;99.90;;;;;;4822947;29;20460;-70
2021/08/04 09:32:42;;;;;;;4.33;4.03;;;19.00;99.90;;;;;;4822147;29;20476;-69
2021/08/04 09:35:14;;;;;;;4.63;4.17;;;19.10;99.90;;;;;;4822435;29;20464;-69
2021/08/04 09:37:40;;;;;;;5.20;4.67;;;19.10;99.90;;;;;;4823249;29;20250;-69
2021/08/04 09:40:08;;;;;;;4.27;3.87;;;19.20;99.90;;;;;;4821927;29;20472;-69
2021/08/04 09:42:41;;;;;;;4.53;4.13;;;19.20;99.90;;;;;;4822624;29;20536;-69
2021/08/04 09:45:07;;;;;;;4.23;3.93;;;19.30;99.90;;;;;;4806906;29;20468;-68
2021/08/04 09:47:33;;;;;;;4.90;4.43;;;19.30;99.90;;;;;;4807394;29;20467;-67
2021/08/04 09:50:09;;;;;;;4.77;4.37;;;19.40;99.90;;;;;;4807535;29;20971;-68
2021/08/04 09:52:38;;;;;;;4.83;4.43;;;19.40;99.90;;;;;;4822360;29;20246;-68
2021/08/04 09:55:15;;;;;;;5.70;4.83;;;19.50;99.90;;;;;;4821734;29;20524;-70
2021/08/04 09:57:45;;;;;;;4.57;4.17;;;19.50;99.90;;;;;;4838372;29;20476;-69
2021/08/04 10:00:14;;;;;;;5.23;4.30;;;19.60;99.90;;;;;;4816349;29;20467;-69
2021/08/04 10:02:40;;;;;;;4.10;3.80;;;19.50;99.90;;;;;;4821590;29;20520;-70
2021/08/04 10:05:25;;;;;;;4.07;3.77;;;19.60;99.90;;;;;;4821283;29;20841;-70
2021/08/04 10:08:06;;;;;;;5.30;4.20;;;19.60;99.90;;;;;;4812915;29;20476;-68
2021/08/04 10:10:49;;;;;;;3.90;3.60;;;19.60;99.90;;;;;;4821849;29;20460;-69
2021/08/04 10:13:18;;;;;;;5.27;4.87;;;19.70;99.90;;;;;;4820662;29;20471;-69
2021/08/04 10:15:49;;;;;;;5.40;4.90;;;19.70;99.90;;;;;;4828680;29;20478;-69
2021/08/04 10:18:17;;;;;;;4.80;4.30;;;19.80;99.90;;;;;;4817755;29;20484;-69
2021/08/04 10:20:45;;;;;;;5.40;4.80;;;19.90;99.90;;;;;;4808517;29;20475;-69
2021/08/04 10:23:16;;;;;;;4.10;3.80;;;19.90;99.90;;;;;;4841688;29;20520;-68
2021/08/04 10:25:44;;;;;;;4.47;4.17;;;20.00;99.90;;;;;;4808313;29;20476;-69
2021/08/04 10:28:11;;;;;;;5.53;4.90;;;20.00;99.90;;;;;;4822916;29;20563;-68
2021/08/04 10:30:38;;;;;;;4.50;4.10;;;20.00;99.90;;;;;;4841781;29;20515;-70
2021/08/04 10:33:05;;;;;;;4.00;3.70;;;20.00;99.90;;;;;;4809809;29;20480;-68
2021/08/04 10:35:33;;;;;;;5.73;5.23;;;20.00;99.90;;;;;;4810566;29;20472;-70
2021/08/04 10:38:00;;;;;;;5.73;4.50;;;20.10;99.90;;;;;;4826448;29;21044;-69
2021/08/04 10:40:27;;;;;;;4.67;4.30;;;20.10;99.90;;;;;;4829968;29;20501;-68
2021/08/04 10:42:53;;;;;;;4.67;4.27;;;20.10;99.90;;;;;;4841418;29;20472;-68
2021/08/04 10:45:27;;;;;;;4.73;4.33;;;20.10;99.90;;;;;;4809317;29;20468;-67
2021/08/04 10:48:16;;;;;;;4.47;4.17;;;20.20;99.90;;;;;;4825122;29;20464;-68
2021/08/04 10:51:10;;;;;;;4.80;4.40;;;20.20;99.90;;;;;;4841227;29;20989;-68
2021/08/04 10:54:02;;;;;;;4.90;4.50;;;20.30;99.90;;;;;;4841627;29;20456;-68
2021/08/04 10:56:37;;;;;;;5.47;4.87;;;20.40;99.90;;;;;;4829570;29;21004;-68
2021/08/04 10:59:29;;;;;;;6.20;4.13;;;20.40;99.90;;;;;;4843094;29;21019;-68
2021/08/04 11:02:01;;;;;;;5.17;4.67;;;20.50;99.90;;;;;;4834862;29;20526;-68
2021/08/04 11:04:30;;;;;;;4.47;3.67;;;20.50;99.90;;;;;;4827954;29;20483;-69
2021/08/04 11:07:08;;;;;;;4.10;3.77;;;20.50;99.90;;;;;;4828240;29;20455;-68
2021/08/04 11:09:48;;;;;;;4.73;4.33;;;20.60;99.90;;;;;;4843390;29;20463;-68
2021/08/04 11:12:23;;;;;;;5.17;4.03;;;20.60;99.90;;;;;;4842170;29;20500;-68
2021/08/04 11:14:55;;;;;;;3.90;3.50;;;20.60;99.90;;;;;;4817583;29;20524;-68
2021/08/04 11:17:24;;;;;;;4.47;4.07;;;20.60;99.90;;;;;;4827614;29;20480;-68
2021/08/04 11:20:06;;;;;;;4.53;4.17;;;20.70;99.90;;;;;;4859843;29;20479;-68
2021/08/04 11:22:34;;;;;;;4.70;3.77;;;20.80;99.90;;;;;;4842798;29;20468;-68
2021/08/04 11:25:24;;;;;;;3.77;3.47;;;20.90;99.90;;;;;;4834956;29;20491;-69
2021/08/04 11:27:53;;;;;;;5.27;3.10;;;21.00;99.90;;;;;;4811958;29;20500;-68
2021/08/04 11:30:30;;;;;;;4.43;4.03;;;21.00;99.90;;;;;;4852874;29;20464;-68
2021/08/04 11:33:29;;;;;;;6.73;3.57;;;21.00;99.90;;;;;;4823904;29;20472;-68
2021/08/04 11:36:05;;;;;;;4.40;4.00;;;21.10;99.90;;;;;;4822021;29;20977;-68
2021/08/04 11:39:01;;;;;;;3.73;3.43;;;21.10;99.90;;;;;;4829453;29;20483;-70
2021/08/04 11:41:32;;;;;;;3.40;3.20;;;21.00;99.90;;;;;;4788731;29;20484;-68
2021/08/04 11:44:18;;;;;;;3.93;3.30;;;21.10;99.90;;;;;;4805749;29;20847;-69
2021/08/04 11:46:46;;;;;;;4.10;3.80;;;21.10;99.90;;;;;;4790686;29;20484;-67
2021/08/04 11:49:17;;;;;;;3.80;3.50;;;21.20;99.90;;;;;;4791399;29;20484;-69
2021/08/04 11:51:52;;;;;;;3.73;3.43;;;21.20;99.90;;;;;;4821589;29;20469;-69
2021/08/04 11:54:49;;;;;;;3.80;3.60;;;21.30;99.90;;;;;;4823372;29;20476;-69
2021/08/04 11:57:31;;;;;;;3.60;3.30;;;21.30;99.90;;;;;;4790658;29;20480;-68
2021/08/04 12:00:00;;;;;;;4.30;3.63;;;21.20;99.90;;;;;;4823555;29;20456;-68
2021/08/04 12:02:30;;;;;;;3.53;3.33;;;21.20;99.90;;;;;;4815133;29;20464;-68
2021/08/04 12:04:58;;;;;;;3.73;3.43;;;21.20;99.90;;;;;;4838295;29;20468;-68
2021/08/04 12:07:26;;;;;;;3.30;3.10;;;21.20;99.90;;;;;;4836552;29;20474;-69
2021/08/04 12:09:56;;;;;;;3.80;3.50;;;21.20;99.90;;;;;;4812252;29;20476;-67
2021/08/04 12:12:43;;;;;;;3.20;3.00;;;21.20;99.90;;;;;;4824962;29;20960;-69
2021/08/04 12:15:26;;;;;;;3.43;3.13;;;21.10;99.90;;;;;;4826485;29;20502;-69
2021/08/04 12:18:01;;;;;;;3.87;3.57;;;21.10;99.90;;;;;;4826798;29;20502;-68
2021/08/04 12:20:28;;;;;;;3.80;3.40;;;21.10;99.90;;;;;;4841574;29;20606;-69
2021/08/04 12:23:06;;;;;;;4.20;3.40;;;21.10;99.90;;;;;;4841778;29;20482;-69
2021/08/04 12:25:36;;;;;;;4.07;3.67;;;21.10;99.90;;;;;;4810514;29;20469;-68
2021/08/04 12:28:03;;;;;;;3.77;3.47;;;21.10;99.90;;;;;;4838269;29;20825;-69
2021/08/04 12:30:36;;;;;;;3.10;2.90;;;21.00;99.90;;;;;;4835376;29;20463;-68
2021/08/04 12:33:13;;;;;;;3.20;3.00;;;21.00;99.90;;;;;;4812205;29;21099;-69
2021/08/04 12:38:53;;;;;;;2.83;2.63;;;21.00;99.90;;;;;;4833862;29;20490;-69
2021/08/04 12:41:22;;;;;;;3.27;2.70;;;21.10;99.90;;;;;;4817996;29;20468;-70
2021/08/04 12:43:48;;;;;;;3.13;2.93;;;21.10;99.90;;;;;;4821027;29;20480;-68
2021/08/04 12:46:14;;;;;;;2.40;2.20;;;21.10;99.90;;;;;;4821044;29;20461;-68
2021/08/04 12:48:41;;;;;;;2.43;2.30;;;21.10;99.90;;;;;;4821787;29;20267;-69
2021/08/04 12:51:12;;;;;;;2.60;2.43;;;21.00;99.90;;;;;;4822800;29;20633;-68
2021/08/04 12:53:39;;;;;;;2.20;2.10;;;21.10;99.90;;;;;;4822757;29;20475;-69
2021/08/04 12:56:16;;;;;;;2.33;2.17;;;21.10;99.90;;;;;;4815911;29;20463;-69
2021/08/04 12:58:59;;;;;;;2.33;2.17;;;21.20;99.90;;;;;;4830899;29;20471;-69